»·PEaware :: N17MA KLAX-KSNA

N17MA :: KLAX-KSNA

FLIGHT INFORMATION

Flight Status: Arrived
Operator: Privately registered:
United States
More flights under this callsign
Pilot: Diego M. (28112)
Aircraft: CESSNA 172 SKYHAWK
(C172)
More flights by this aircraft type
Origin: KLAX Los Angeles Intl
United States
Destination: KSNA John Wayne-Orange Co
United States
More flights between these airports :: More routes between these airports
Route: SLI8 SLI
File this flight plan on PilotEdge
Remarks: LAXP55
Altitude:
(Current/Filed)
4,000ft
Speed:
(Current/Filed)
120kts
Departed: 13-May-20 04:24 PM
Arrived: 13-May-20 05:04 PM
Distance/Time
Traveled:
31nm/0:40
Distance/Time
To Go:
Arrived

Flight Plot

Page will automatically refresh every two minutes.

Flight plan parsing failed; only flown route is shown


Map Options




Map Legend


Flown Route
Filed Route
Departure Airport
Arrival Airport
Navaid (VOR, NDB)
Fix

Horizontal Profiles

Position Reports

Time Latitude Longitude Heading Altitude Ground
Speed
13-May-20 15:52 33.933339 -118.399846 78 116ft 0kts
13-May-20 15:53 33.933339 -118.399846 78 116ft 0kts
13-May-20 15:54 33.933339 -118.399846 78 116ft 0kts
13-May-20 15:55 33.933339 -118.399846 78 116ft 0kts
13-May-20 15:56 33.933339 -118.399846 78 116ft 0kts
13-May-20 15:57 33.933339 -118.399846 78 116ft 0kts
13-May-20 15:58 33.933339 -118.399846 78 116ft 0kts
13-May-20 15:59 33.933339 -118.399846 78 116ft 0kts
13-May-20 16:00 33.933339 -118.399846 78 116ft 0kts
13-May-20 16:01 33.933339 -118.399846 78 116ft 0kts
13-May-20 16:02 33.933339 -118.399846 78 116ft 0kts
13-May-20 16:03 33.933339 -118.399846 78 116ft 0kts
13-May-20 16:04 33.933339 -118.399846 78 116ft 0kts
13-May-20 16:05 33.933339 -118.399846 78 116ft 0kts
13-May-20 16:06 33.933339 -118.399846 78 116ft 0kts
13-May-20 16:07 33.933339 -118.399846 78 116ft 0kts
13-May-20 16:08 33.933339 -118.399846 78 116ft 0kts
13-May-20 16:09 33.933339 -118.399846 78 116ft 0kts
13-May-20 16:10 33.933339 -118.399846 78 116ft 0kts
13-May-20 16:11 33.933339 -118.399846 78 116ft 0kts
13-May-20 16:12 33.933339 -118.399846 78 116ft 0kts
13-May-20 16:13 33.933339 -118.399846 78 116ft 0kts
13-May-20 16:14 33.933339 -118.399846 78 116ft 0kts
13-May-20 16:15 33.933339 -118.399846 78 116ft 0kts
13-May-20 16:16 33.933339 -118.399846 78 116ft 0kts
13-May-20 16:17 33.933639 -118.398645 67 112ft 15kts
13-May-20 16:18 33.934627 -118.397243 81 109ft 13kts
13-May-20 16:19 33.935320 -118.390508 83 102ft 19kts
13-May-20 16:20 33.936319 -118.382836 26 98ft 16kts
13-May-20 16:21 33.936504 -118.382756 348 98ft 0kts
13-May-20 16:22 33.936591 -118.382778 347 98ft 4kts
13-May-20 16:23 33.936187 -118.395868 260 324ft 73kts
13-May-20 16:24 33.933500 -118.421460 263 1137ft 88kts
13-May-20 16:25 33.931218 -118.450024 262 2115ft 75kts
13-May-20 16:26 33.926993 -118.467896 195 3148ft 55kts
13-May-20 16:27 33.908800 -118.474888 214 3722ft 81kts
13-May-20 16:28 33.884849 -118.489426 213 4006ft 116kts
13-May-20 16:29 33.855549 -118.507796 213 4002ft 118kts
13-May-20 16:30 33.826188 -118.526241 207 4002ft 121kts
13-May-20 16:31 33.813362 -118.495905 70 4005ft 136kts
13-May-20 16:32 33.814032 -118.449746 94 4006ft 138kts
13-May-20 16:33 33.810570 -118.403458 95 4006ft 139kts
13-May-20 16:34 33.807002 -118.357063 95 4006ft 137kts
13-May-20 16:36 33.803486 -118.311547 95 4007ft 136kts
13-May-20 16:37 33.799947 -118.265973 95 4004ft 136kts
13-May-20 16:38 33.796389 -118.220031 96 4002ft 142kts
13-May-20 16:39 33.792636 -118.172084 97 3996ft 143kts
13-May-20 16:40 33.788867 -118.124481 97 3993ft 142kts
13-May-20 16:41 33.785084 -118.076707 98 3989ft 142kts
13-May-20 16:42 33.793107 -118.030832 65 3990ft 143kts
13-May-20 16:43 33.810483 -117.987356 63 3990ft 142kts
13-May-20 16:44 33.827743 -117.944431 63 3990ft 142kts
13-May-20 16:45 33.845035 -117.901397 64 3990ft 141kts
13-May-20 16:46 33.862177 -117.858653 63 3988ft 141kts
13-May-20 16:47 33.879257 -117.815981 62 3984ft 141kts
13-May-20 16:48 33.896254 -117.773518 62 3974ft 139kts
13-May-20 16:49 33.913015 -117.731590 61 3966ft 136kts
13-May-20 16:50 33.937919 -117.702576 24 3892ft 118kts
13-May-20 16:51 33.966973 -117.685794 355 3606ft 112kts
13-May-20 16:52 33.966202 -117.709733 207 3469ft 105kts
13-May-20 16:52 33.942453 -117.713496 177 3466ft 105kts
13-May-20 16:54 33.908811 -117.719337 213 3464ft 111kts
13-May-20 16:54 33.885821 -117.734687 211 3432ft 116kts
13-May-20 16:55 33.856616 -117.753739 211 3335ft 112kts
13-May-20 16:56 33.829352 -117.771309 211 2777ft 94kts
13-May-20 16:57 33.804853 -117.786869 210 2442ft 105kts
13-May-20 16:58 33.780816 -117.802097 210 2187ft 90kts
13-May-20 16:59 33.756354 -117.817690 209 1738ft 105kts
13-May-20 17:00 33.729865 -117.834506 208 1160ft 108kts
13-May-20 17:01 33.704105 -117.850846 208 591ft 101kts
13-May-20 17:02 33.683873 -117.863672 208 128ft 58kts
13-May-20 17:03 33.678018 -117.868205 295 60ft 10kts
13-May-20 17:04 33.676039 -117.871010 308 60ft 12kts

Navigation Log

Ident Type
Flight plan parsing failed, navigation log unavailable